Time;durP1;ratioP1;P1;durP2;ratioP2;P2;SDS_P1;SDS_P2;PMS_P1;PMS_P2;Temp;Humidity;BMP_temperature;BMP_pressure;BME280_temperature;BME280_humidity;BME280_pressure;Samples;Min_cycle;Max_cycle;Signal;HPM_P1;HPM_P2
2021/11/29 00:00:53;;;;;;;;;;;6.20;94.40;;;;;;4686849;28;19924;-72
2021/11/29 00:03:18;;;;;;;;;;;6.30;94.50;;;;;;4687317;28;20381;-72
2021/11/29 00:05:34;;;;;;;;;;;6.30;94.60;;;;;;4668330;28;19993;-73
2021/11/29 00:07:50;;;;;;;;;;;6.30;94.50;;;;;;4687414;28;20300;-73
2021/11/29 00:10:07;;;;;;;;;;;6.30;94.40;;;;;;4668675;28;20034;-72
2021/11/29 00:12:23;;;;;;;;;;;6.30;94.40;;;;;;4669067;28;20290;-73
2021/11/29 00:14:40;;;;;;;;;;;6.30;94.60;;;;;;4686511;28;19962;-72
2021/11/29 00:16:59;;;;;;;;;;;6.30;94.60;;;;;;4686948;28;20197;-72
2021/11/29 00:19:15;;;;;;;;;;;6.30;94.50;;;;;;4686736;28;20401;-73
2021/11/29 00:21:31;;;;;;;;;;;6.30;94.50;;;;;;4686691;28;20395;-72
2021/11/29 00:23:50;;;;;;;;;;;6.30;94.50;;;;;;4686742;28;20145;-72
2021/11/29 00:26:06;;;;;;;;;;;6.40;94.60;;;;;;4668304;28;19928;-72
2021/11/29 00:28:30;;;;;;;;;;;6.40;94.50;;;;;;4686819;28;20412;-72
2021/11/29 00:30:51;;;;;;;;;;;6.40;94.40;;;;;;4685875;28;20217;-73
2021/11/29 00:33:07;;;;;;;;;;;6.30;94.40;;;;;;4686789;28;19923;-72
2021/11/29 00:35:23;;;;;;;;;;;6.30;94.20;;;;;;4686311;28;19924;-72
2021/11/29 00:37:40;;;;;;;;;;;6.40;94.40;;;;;;4686737;28;19980;-72
2021/11/29 00:40:00;;;;;;;;;;;6.30;94.30;;;;;;4686435;28;19924;-72
2021/11/29 00:42:17;;;;;;;;;;;6.30;94.30;;;;;;4686772;28;19924;-72
2021/11/29 00:44:33;;;;;;;;;;;6.30;94.40;;;;;;4685772;28;20008;-71
2021/11/29 00:46:50;;;;;;;;;;;6.20;94.40;;;;;;4686806;28;19923;-71
2021/11/29 00:49:06;;;;;;;;;;;6.30;94.40;;;;;;4667730;28;20468;-71
2021/11/29 00:51:23;;;;;;;;;;;6.30;94.50;;;;;;4686623;28;19924;-71
2021/11/29 00:53:39;;;;;;;;;;;6.30;94.40;;;;;;4686146;28;19931;-71
2021/11/29 00:55:58;;;;;;;;;;;6.20;94.40;;;;;;4686489;28;19924;-73
2021/11/29 00:58:14;;;;;;;;;;;6.20;94.40;;;;;;4686133;28;19958;-72
2021/11/29 01:00:30;;;;;;;;;;;6.20;94.50;;;;;;4686277;28;20442;-72
2021/11/29 01:02:48;;;;;;;;;;;6.30;94.60;;;;;;4686200;28;19930;-72
2021/11/29 01:05:05;;;;;;;;;;;6.30;94.60;;;;;;4686691;28;19970;-72
2021/11/29 01:07:21;;;;;;;;;;;6.30;94.40;;;;;;4668126;28;19974;-72
2021/11/29 01:09:38;;;;;;;;;;;6.20;94.50;;;;;;4686009;28;19946;-72
2021/11/29 01:11:57;;;;;;;;;;;6.20;94.40;;;;;;4668115;28;20026;-73
2021/11/29 01:14:13;;;;;;;;;;;6.20;94.40;;;;;;4686011;28;20420;-73
2021/11/29 01:16:31;;;;;;;;;;;6.20;94.40;;;;;;4686376;28;19981;-73
2021/11/29 01:18:49;;;;;;;;;;;6.20;94.50;;;;;;4685816;28;19958;-73
2021/11/29 01:21:05;;;;;;;;;;;6.20;94.50;;;;;;4686307;28;19927;-74
2021/11/29 01:23:22;;;;;;;;;;;6.20;94.50;;;;;;4685736;28;20001;-72
2021/11/29 01:25:39;;;;;;;;;;;6.20;94.60;;;;;;4686423;28;20400;-72
2021/11/29 01:27:55;;;;;;;;;;;6.20;94.60;;;;;;4667501;28;19931;-73
2021/11/29 01:30:12;;;;;;;;;;;6.30;94.70;;;;;;4686257;28;20294;-73
2021/11/29 01:32:28;;;;;;;;;;;6.30;94.70;;;;;;4685637;28;20004;-73
2021/11/29 01:34:46;;;;;;;;;;;6.30;94.70;;;;;;4686229;28;20023;-72
2021/11/29 01:37:02;;;;;;;;;;;6.30;94.70;;;;;;4667777;28;20309;-73
2021/11/29 01:39:21;;;;;;;;;;;6.30;94.70;;;;;;4685934;28;19923;-73
2021/11/29 01:41:37;;;;;;;;;;;6.30;94.40;;;;;;4685871;28;19924;-72
2021/11/29 01:43:53;;;;;;;;;;;6.30;94.60;;;;;;4688217;28;19930;-72
2021/11/29 01:46:12;;;;;;;;;;;6.30;94.50;;;;;;4671205;28;19970;-72
2021/11/29 01:48:28;;;;;;;;;;;6.30;94.40;;;;;;4671046;28;19931;-72
2021/11/29 01:50:46;;;;;;;;;;;6.30;94.50;;;;;;4671202;28;20266;-72
2021/11/29 01:53:03;;;;;;;;;;;6.30;94.50;;;;;;4689201;28;19959;-73
2021/11/29 01:55:19;;;;;;;;;;;6.20;94.40;;;;;;4689484;28;20364;-72
2021/11/29 01:57:36;;;;;;;;;;;6.20;94.50;;;;;;4689035;28;20001;-72
2021/11/29 01:59:52;;;;;;;;;;;6.20;94.60;;;;;;4689449;28;20380;-73
2021/11/29 02:02:13;;;;;;;;;;;6.20;94.50;;;;;;4689114;28;19924;-73
2021/11/29 02:04:29;;;;;;;;;;;6.30;94.60;;;;;;4689326;28;19924;-73
2021/11/29 02:06:47;;;;;;;;;;;6.30;95.10;;;;;;4670506;28;19959;-73
2021/11/29 02:09:04;;;;;;;;;;;6.30;94.70;;;;;;4689361;28;19924;-72
2021/11/29 02:11:22;;;;;;;;;;;6.30;94.70;;;;;;4670505;28;19924;-72
2021/11/29 02:13:39;;;;;;;;;;;6.40;94.60;;;;;;4689218;28;19959;-73
2021/11/29 02:15:55;;;;;;;;;;;6.40;94.70;;;;;;4670458;28;19928;-72
2021/11/29 02:18:11;;;;;;;;;;;6.40;94.60;;;;;;4689279;28;19923;-72
2021/11/29 02:20:30;;;;;;;;;;;6.40;94.70;;;;;;4688745;28;19974;-72
2021/11/29 02:22:47;;;;;;;;;;;6.40;94.40;;;;;;4689390;28;19927;-72
2021/11/29 02:25:04;;;;;;;;;;;6.40;94.50;;;;;;4688690;28;20293;-72
2021/11/29 02:27:20;;;;;;;;;;;6.40;94.50;;;;;;4688529;28;19984;-72
2021/11/29 02:29:40;;;;;;;;;;;6.40;94.30;;;;;;4670610;28;19924;-72
2021/11/29 02:31:57;;;;;;;;;;;6.40;94.30;;;;;;4670190;28;19944;-72
2021/11/29 02:34:14;;;;;;;;;;;6.40;94.40;;;;;;4688749;28;19923;-72
2021/11/29 02:36:32;;;;;;;;;;;6.40;94.30;;;;;;4688492;28;20010;-72
2021/11/29 02:38:48;;;;;;;;;;;6.40;94.50;;;;;;4688734;28;19930;-72
2021/11/29 02:41:06;;;;;;;;;;;6.40;94.40;;;;;;4670236;28;19952;-72
2021/11/29 02:43:22;;;;;;;;;;;6.40;94.40;;;;;;4688740;28;19949;-72
2021/11/29 02:45:38;;;;;;;;;;;6.30;94.40;;;;;;4669750;28;20195;-72
2021/11/29 02:47:55;;;;;;;;;;;6.30;94.40;;;;;;4688686;28;20038;-72
2021/11/29 02:50:13;;;;;;;;;;;6.40;94.60;;;;;;4687893;28;19930;-72
2021/11/29 02:52:31;;;;;;;;;;;6.40;94.50;;;;;;4670397;28;19931;-72
2021/11/29 02:54:47;;;;;;;;;;;6.40;94.60;;;;;;4687638;28;19928;-72
2021/11/29 02:57:05;;;;;;;;;;;6.40;94.50;;;;;;4688402;28;19955;-72
2021/11/29 02:59:24;;;;;;;;;;;6.40;94.40;;;;;;4669915;28;20338;-72
2021/11/29 03:01:42;;;;;;;;;;;6.40;94.30;;;;;;4669984;28;19924;-72
2021/11/29 03:03:58;;;;;;;;;;;6.40;94.40;;;;;;4669842;28;19924;-72
2021/11/29 03:06:14;;;;;;;;;;;6.40;94.10;;;;;;4687988;28;20014;-71
2021/11/29 03:08:34;;;;;;;;;;;6.40;94.30;;;;;;4669903;28;19955;-71
2021/11/29 03:10:52;;;;;;;;;;;6.40;94.30;;;;;;4687878;28;20767;-71
2021/11/29 03:13:11;;;;;;;;;;;6.30;94.10;;;;;;4669855;28;19930;-71
2021/11/29 03:15:28;;;;;;;;;;;6.30;94.30;;;;;;4687964;28;20326;-72
2021/11/29 03:17:44;;;;;;;;;;;6.30;94.40;;;;;;4669754;28;20295;-71
2021/11/29 03:20:00;;;;;;;;;;;6.30;94.50;;;;;;4669214;28;19931;-71
2021/11/29 03:22:16;;;;;;;;;;;6.40;94.50;;;;;;4670075;28;20324;-72
2021/11/29 03:24:34;;;;;;;;;;;6.40;94.40;;;;;;4687291;28;20301;-72
2021/11/29 03:26:50;;;;;;;;;;;6.40;94.40;;;;;;4687869;28;19924;-72
2021/11/29 03:29:10;;;;;;;;;;;6.40;94.20;;;;;;4687230;28;19924;-72
2021/11/29 03:31:29;;;;;;;;;;;6.40;94.40;;;;;;4687920;28;19930;-72
2021/11/29 03:33:46;;;;;;;;;;;6.40;94.30;;;;;;4687408;28;20015;-72
2021/11/29 03:36:05;;;;;;;;;;;6.40;94.40;;;;;;4687650;28;19956;-72
2021/11/29 03:38:22;;;;;;;;;;;6.40;94.30;;;;;;4687426;28;19977;-72
2021/11/29 03:40:39;;;;;;;;;;;6.40;94.30;;;;;;4687493;28;19970;-72
2021/11/29 03:42:56;;;;;;;;;;;6.40;94.30;;;;;;4687355;28;19955;-71
2021/11/29 03:45:14;;;;;;;;;;;6.40;94.20;;;;;;4668908;28;19925;-72
2021/11/29 03:47:30;;;;;;;;;;;6.40;94.10;;;;;;4669157;28;19924;-71
2021/11/29 03:49:47;;;;;;;;;;;6.30;94.00;;;;;;4668841;28;20390;-72
2021/11/29 03:52:03;;;;;;;;;;;6.30;94.20;;;;;;4687351;28;19931;-72
2021/11/29 03:54:20;;;;;;;;;;;6.30;94.20;;;;;;4668799;28;19954;-72
2021/11/29 03:56:38;;;;;;;;;;;6.30;94.20;;;;;;4687273;28;19923;-71
2021/11/29 03:58:54;;;;;;;;;;;6.30;94.30;;;;;;4668684;28;19924;-72
2021/11/29 04:01:11;;;;;;;;;;;6.30;94.30;;;;;;4687551;28;19931;-71
2021/11/29 04:03:27;;;;;;;;;;;6.30;94.30;;;;;;4686632;28;19966;-72
2021/11/29 04:05:43;;;;;;;;;;;6.30;94.20;;;;;;4668167;28;19967;-72
2021/11/29 04:07:59;;;;;;;;;;;6.30;94.20;;;;;;4686527;28;20003;-72
2021/11/29 04:10:16;;;;;;;;;;;6.30;94.00;;;;;;4669007;28;20356;-71
2021/11/29 04:12:33;;;;;;;;;;;6.30;94.00;;;;;;4686596;28;19927;-71
2021/11/29 04:14:50;;;;;;;;;;;6.30;94.10;;;;;;4687211;28;19959;-71
2021/11/29 04:17:06;;;;;;;;;;;6.20;94.10;;;;;;4668570;28;19959;-71
2021/11/29 04:19:22;;;;;;;;;;;6.20;94.20;;;;;;4686809;28;19931;-71
2021/11/29 04:21:38;;;;;;;;;;;6.20;94.10;;;;;;4686939;28;19924;-71
2021/11/29 04:23:54;;;;;;;;;;;6.20;94.10;;;;;;4686850;28;19963;-72
2021/11/29 04:26:13;;;;;;;;;;;6.20;94.30;;;;;;4686843;28;19928;-71
2021/11/29 04:28:31;;;;;;;;;;;6.20;94.10;;;;;;4686757;28;19935;-71
2021/11/29 04:30:47;;;;;;;;;;;6.20;94.00;;;;;;4686626;28;19923;-72
2021/11/29 04:33:05;;;;;;;;;;;6.10;94.10;;;;;;4686597;28;20373;-73
2021/11/29 04:35:21;;;;;;;;;;;6.10;94.20;;;;;;4668408;28;19985;-71
2021/11/29 04:37:40;;;;;;;;;;;6.20;94.20;;;;;;4686487;28;19949;-72
2021/11/29 04:39:56;;;;;;;;;;;6.20;94.40;;;;;;4668408;28;20290;-70
2021/11/29 04:42:12;;;;;;;;;;;6.20;94.20;;;;;;4668057;28;20015;-71
2021/11/29 04:44:30;;;;;;;;;;;6.10;94.00;;;;;;4686647;28;19966;-70
2021/11/29 04:46:46;;;;;;;;;;;6.10;94.10;;;;;;4686051;28;20014;-70
2021/11/29 04:49:03;;;;;;;;;;;6.10;94.10;;;;;;4668399;28;20248;-71
2021/11/29 04:51:19;;;;;;;;;;;6.10;94.20;;;;;;4685985;28;19967;-70
2021/11/29 04:53:40;;;;;;;;;;;6.10;94.30;;;;;;4686616;28;19924;-71
2021/11/29 04:55:57;;;;;;;;;;;6.10;94.20;;;;;;4667961;28;19986;-72
2021/11/29 04:58:13;;;;;;;;;;;6.10;94.10;;;;;;4668209;28;19960;-72
2021/11/29 05:00:30;;;;;;;;;;;6.10;94.20;;;;;;4686257;28;19928;-72
2021/11/29 05:02:47;;;;;;;;;;;6.10;94.10;;;;;;4686366;28;20438;-72
2021/11/29 05:05:04;;;;;;;;;;;6.10;94.20;;;;;;4686112;28;19954;-72
2021/11/29 05:07:20;;;;;;;;;;;6.10;94.30;;;;;;4686171;28;20386;-72
2021/11/29 05:09:36;;;;;;;;;;;6.20;94.30;;;;;;4686155;28;19931;-72
2021/11/29 05:11:55;;;;;;;;;;;6.20;94.20;;;;;;4686173;28;19955;-72
2021/11/29 05:14:11;;;;;;;;;;;6.20;94.30;;;;;;4686259;28;19924;-70
2021/11/29 05:16:29;;;;;;;;;;;6.20;94.20;;;;;;4686306;28;20339;-70
2021/11/29 05:18:45;;;;;;;;;;;6.20;94.20;;;;;;4690103;28;19996;-71
2021/11/29 05:21:02;;;;;;;;;;;6.30;94.30;;;;;;4671691;28;20014;-71
2021/11/29 05:23:18;;;;;;;;;;;6.20;94.10;;;;;;4671877;28;19924;-72
2021/11/29 05:25:38;;;;;;;;;;;6.30;94.20;;;;;;4689641;28;19947;-71
2021/11/29 05:27:54;;;;;;;;;;;6.20;94.00;;;;;;4690005;28;19924;-71
2021/11/29 05:30:11;;;;;;;;;;;6.20;94.00;;;;;;4689496;28;19924;-71
2021/11/29 05:32:28;;;;;;;;;;;6.20;94.00;;;;;;4671668;28;19977;-72
2021/11/29 05:34:45;;;;;;;;;;;6.20;94.00;;;;;;4689442;28;19923;-72
2021/11/29 05:37:08;;;;;;;;;;;6.20;94.10;;;;;;4671551;28;19931;-72
2021/11/29 05:39:25;;;;;;;;;;;6.20;94.00;;;;;;4689481;28;20011;-73
2021/11/29 05:41:41;;;;;;;;;;;6.20;94.00;;;;;;4689575;28;19924;-71
2021/11/29 05:43:57;;;;;;;;;;;6.10;93.90;;;;;;4670968;28;19928;-71
2021/11/29 05:46:18;;;;;;;;;;;6.10;94.00;;;;;;4689714;28;20329;-72
2021/11/29 05:48:37;;;;;;;;;;;6.10;93.90;;;;;;4689306;28;19924;-72
2021/11/29 05:50:54;;;;;;;;;;;6.10;93.80;;;;;;4689260;28;19924;-72
2021/11/29 05:53:12;;;;;;;;;;;6.00;93.80;;;;;;4671104;28;19944;-72
2021/11/29 05:55:29;;;;;;;;;;;6.00;93.90;;;;;;4689469;28;19946;-72
2021/11/29 05:57:47;;;;;;;;;;;6.00;93.90;;;;;;4690051;28;19924;-72
2021/11/29 06:00:04;;;;;;;;;;;6.00;93.80;;;;;;4670673;28;19959;-73
2021/11/29 06:02:26;;;;;;;;;;;6.00;93.80;;;;;;4689503;28;19924;-72
2021/11/29 06:04:44;;;;;;;;;;;5.90;93.70;;;;;;4670418;28;19924;-72
2021/11/29 06:07:00;;;;;;;;;;;5.90;93.80;;;;;;4689282;28;19970;-72
2021/11/29 06:09:17;;;;;;;;;;;5.80;94.00;;;;;;4670306;28;19931;-72
2021/11/29 06:11:33;;;;;;;;;;;5.80;93.90;;;;;;4689210;28;19924;-72
2021/11/29 06:13:50;;;;;;;;;;;5.80;93.90;;;;;;4688711;28;19939;-72
2021/11/29 06:16:06;;;;;;;;;;;5.80;93.80;;;;;;4670630;28;20370;-72
2021/11/29 06:18:26;;;;;;;;;;;5.80;93.90;;;;;;4688756;28;19953;-72
2021/11/29 06:20:44;;;;;;;;;;;5.80;94.00;;;;;;4670580;28;19925;-72
2021/11/29 06:23:00;;;;;;;;;;;5.80;94.00;;;;;;4670378;28;20023;-70
2021/11/29 06:25:19;;;;;;;;;;;5.80;94.00;;;;;;4688890;28;19924;-73
2021/11/29 06:27:35;;;;;;;;;;;5.80;93.90;;;;;;4670316;28;19960;-73
2021/11/29 06:29:51;;;;;;;;;;;5.80;93.90;;;;;;4687942;28;19924;-71
2021/11/29 06:32:08;;;;;;;;;;;5.80;94.00;;;;;;4688618;28;19930;-71
2021/11/29 06:34:26;;;;;;;;;;;5.80;94.00;;;;;;4688681;28;19924;-73
2021/11/29 06:36:43;;;;;;;;;;;5.80;94.10;;;;;;4688450;28;19927;-72
2021/11/29 06:39:00;;;;;;;;;;;5.80;94.00;;;;;;4670279;28;19930;-72
2021/11/29 06:41:20;;;;;;;;;;;5.80;93.90;;;;;;4688424;28;20016;-71
2021/11/29 06:43:39;;;;;;;;;;;5.80;93.90;;;;;;4687975;28;19984;-72
2021/11/29 06:45:55;;;;;;;;;;;5.80;93.70;;;;;;4670349;28;19975;-73
2021/11/29 06:48:12;;;;;;;;;;;5.80;93.90;;;;;;4688069;28;20393;-73
2021/11/29 06:50:30;;;;;;;;;;;5.80;93.90;;;;;;4688187;28;19923;-73
2021/11/29 06:52:48;;;;;;;;;;;5.80;94.00;;;;;;4688004;28;20014;-71
2021/11/29 06:55:05;;;;;;;;;;;5.80;94.10;;;;;;4688243;28;20313;-72
2021/11/29 06:57:21;;;;;;;;;;;5.90;94.20;;;;;;4669717;28;19928;-73
2021/11/29 06:59:37;;;;;;;;;;;5.90;94.10;;;;;;4669757;28;19956;-73
2021/11/29 07:01:54;;;;;;;;;;;5.90;94.00;;;;;;4669580;28;19931;-74
2021/11/29 07:04:12;;;;;;;;;;;5.90;93.80;;;;;;4669863;28;19930;-74
2021/11/29 07:06:31;;;;;;;;;;;5.90;93.90;;;;;;4687994;28;20351;-73
2021/11/29 07:08:51;;;;;;;;;;;5.90;93.90;;;;;;4669859;28;20016;-72
2021/11/29 07:11:10;;;;;;;;;;;5.90;93.80;;;;;;4688400;28;19950;-73
2021/11/29 07:13:28;;;;;;;;;;;5.90;93.80;;;;;;4688040;28;19969;-72
2021/11/29 07:15:45;;;;;;;;;;;5.90;93.70;;;;;;4669835;28;19947;-74
2021/11/29 07:18:02;;;;;;;;;;;5.90;93.70;;;;;;4687548;28;19967;-72
2021/11/29 07:20:18;;;;;;;;;;;5.90;93.80;;;;;;4669842;28;19923;-73
2021/11/29 07:22:35;;;;;;;;;;;5.90;93.80;;;;;;4669275;28;20370;-73
2021/11/29 07:24:53;;;;;;;;;;;5.90;93.80;;;;;;4687589;28;19931;-73
2021/11/29 07:27:09;;;;;;;;;;;5.90;93.90;;;;;;4668977;28;19967;-73
2021/11/29 07:29:25;;;;;;;;;;;6.00;94.10;;;;;;4669807;28;19924;-73
2021/11/29 07:31:42;;;;;;;;;;;6.00;94.00;;;;;;4669110;28;20259;-73
2021/11/29 07:33:58;;;;;;;;;;;6.10;94.00;;;;;;4681445;27;19969;-73
2021/11/29 07:36:14;;;;;;;;;;;6.10;94.00;;;;;;4706212;27;20414;-73
2021/11/29 07:38:32;;;;;;;;;;;6.10;93.90;;;;;;4706193;27;19969;-72
2021/11/29 07:40:50;;;;;;;;;;;6.10;93.80;;;;;;4706010;27;19923;-72
2021/11/29 07:43:08;;;;;;;;;;;6.10;93.80;;;;;;4687662;27;19955;-71
2021/11/29 07:45:24;;;;;;;;;;;6.10;93.60;;;;;;4705620;27;19924;-72
2021/11/29 07:47:41;;;;;;;;;;;6.10;93.80;;;;;;4705820;27;19969;-72
2021/11/29 07:50:00;;;;;;;;;;;6.20;93.70;;;;;;4704868;27;19927;-72
2021/11/29 07:52:16;;;;;;;;;;;6.10;93.30;;;;;;4688118;27;20342;-71
2021/11/29 07:54:35;;;;;;;;;;;6.10;93.50;;;;;;4705903;27;19969;-73
2021/11/29 07:56:53;;;;;;;;;;;6.10;93.80;;;;;;4687441;27;19959;-71
2021/11/29 07:59:09;;;;;;;;;;;6.10;93.80;;;;;;4687588;27;19931;-71
2021/11/29 08:01:25;;;;;;;;;;;6.20;93.80;;;;;;4703682;27;19930;-71
2021/11/29 08:03:42;;;;;;;;;;;6.20;93.80;;;;;;4686788;27;19934;-73
2021/11/29 08:05:58;;;;;;;;;;;6.20;93.60;;;;;;4686031;27;20417;-70
2021/11/29 08:08:16;;;;;;;;;;;6.30;93.70;;;;;;4705151;27;19923;-72
2021/11/29 08:10:34;;;;;;;;;;;6.30;93.80;;;;;;4704728;27;19966;-73
2021/11/29 08:12:54;;;;;;;;;;;6.30;93.70;;;;;;4705321;27;19976;-73
2021/11/29 08:15:10;;;;;;;;;;;6.30;93.50;;;;;;4704665;27;20124;-74
2021/11/29 08:17:27;;;;;;;;;;;6.30;93.50;;;;;;4704634;27;19947;-74
2021/11/29 08:19:43;;;;;;;;;;;6.30;93.50;;;;;;4704038;27;20304;-74
2021/11/29 08:21:59;;;;;;;;;;;6.20;93.40;;;;;;4704897;27;20514;-73
2021/11/29 08:24:20;;;;;;;;;;;6.20;93.60;;;;;;4704317;27;20341;-74
2021/11/29 08:26:36;;;;;;;;;;;6.20;93.70;;;;;;4704630;27;19950;-74
2021/11/29 08:28:54;;;;;;;;;;;6.20;93.60;;;;;;4704175;27;19924;-74
2021/11/29 08:31:10;;;;;;;;;;;6.30;93.60;;;;;;4685790;27;19966;-74
2021/11/29 08:33:27;;;;;;;;;;;6.30;93.60;;;;;;4704140;27;20303;-73
2021/11/29 08:35:46;;;;;;;;;;;6.30;93.50;;;;;;4686054;28;20400;-74
2021/11/29 08:38:05;;;;;;;;;;;6.30;93.70;;;;;;4704371;27;19954;-74
2021/11/29 08:40:26;;;;;;;;;;;6.30;93.90;;;;;;4704084;27;19930;-74
2021/11/29 08:42:42;;;;;;;;;;;6.40;93.70;;;;;;4704723;27;20407;-74
2021/11/29 08:45:00;;;;;;;;;;;6.50;93.60;;;;;;4685319;27;19955;-74
2021/11/29 08:47:21;;;;;;;;;;;6.50;93.40;;;;;;4704321;27;19923;-74
2021/11/29 08:49:37;;;;;;;;;;;6.50;93.00;;;;;;4704015;27;20022;-74
2021/11/29 08:51:54;;;;;;;;;;;6.50;92.90;;;;;;4703675;27;20067;-73
2021/11/29 08:54:11;;;;;;;;;;;6.40;92.90;;;;;;4703780;27;19928;-74
2021/11/29 08:56:27;;;;;;;;;;;6.40;93.10;;;;;;4685818;28;19930;-74
2021/11/29 08:58:43;;;;;;;;;;;6.40;93.30;;;;;;4685519;28;20083;-75
2021/11/29 09:01:01;;;;;;;;;;;6.40;93.10;;;;;;4703988;28;20321;-74
2021/11/29 09:03:17;;;;;;;;;;;6.40;93.10;;;;;;4704121;28;19930;-74
2021/11/29 09:05:34;;;;;;;;;;;6.40;92.90;;;;;;4704085;28;20000;-74
2021/11/29 09:07:50;;;;;;;;;;;6.40;93.10;;;;;;4685025;28;19923;-74
2021/11/29 09:10:06;;;;;;;;;;;6.40;93.30;;;;;;4685829;28;19985;-74
2021/11/29 09:12:23;;;;;;;;;;;6.40;93.30;;;;;;4703463;28;19962;-74
2021/11/29 09:14:39;;;;;;;;;;;6.50;93.50;;;;;;4685647;28;19970;-74
2021/11/29 09:17:01;;;;;;;;;;;6.50;93.40;;;;;;4704078;28;19927;-73
2021/11/29 09:19:17;;;;;;;;;;;6.60;93.50;;;;;;4685183;28;19928;-73
2021/11/29 09:21:34;;;;;;;;;;;6.70;93.40;;;;;;4685851;28;19927;-75
2021/11/29 09:23:52;;;;;;;;;;;6.70;93.20;;;;;;4703751;28;20039;-74
2021/11/29 09:26:09;;;;;;;;;;;6.70;93.20;;;;;;4685612;28;19962;-73
2021/11/29 09:28:26;;;;;;;;;;;6.70;93.10;;;;;;4703504;28;19923;-74
2021/11/29 09:30:46;;;;;;;;;;;6.70;93.10;;;;;;4704112;28;19930;-73
2021/11/29 09:33:04;;;;;;;;;;;6.70;93.00;;;;;;4703374;28;19969;-72
2021/11/29 09:35:20;;;;;;;;;;;6.70;92.90;;;;;;4703471;28;19923;-74
2021/11/29 09:37:37;;;;;;;;;;;6.70;93.00;;;;;;4703694;28;19923;-74
2021/11/29 09:39:54;;;;;;;;;;;6.70;92.70;;;;;;4703548;28;19973;-74
2021/11/29 09:42:10;;;;;;;;;;;6.60;92.50;;;;;;4685266;28;19931;-74
2021/11/29 09:44:26;;;;;;;;;;;6.60;92.60;;;;;;4703760;28;19927;-74
2021/11/29 09:46:45;;;;;;;;;;;6.50;92.70;;;;;;4684125;28;19951;-74
2021/11/29 09:49:05;;;;;;;;;;;6.50;92.50;;;;;;4702576;28;19968;-74
2021/11/29 09:51:21;;;;;;;;;;;6.40;92.40;;;;;;4683689;28;19930;-73
2021/11/29 09:53:37;;;;;;;;;;;6.30;92.60;;;;;;4703289;28;19946;-73
2021/11/29 09:55:54;;;;;;;;;;;6.30;92.50;;;;;;4703774;28;20342;-74
2021/11/29 09:58:10;;;;;;;;;;;6.30;92.80;;;;;;4685069;28;20388;-74
2021/11/29 10:00:30;;;;;;;;;;;6.30;92.80;;;;;;4685404;28;19924;-74
2021/11/29 10:02:46;;;;;;;;;;;6.30;92.80;;;;;;4703449;27;19924;-74
2021/11/29 10:05:05;;;;;;;;;;;6.30;93.00;;;;;;4706281;27;19930;-74
2021/11/29 10:07:28;;;;;;;;;;;6.30;93.20;;;;;;4688151;27;19934;-73
2021/11/29 10:09:44;;;;;;;;;;;6.40;93.40;;;;;;4706915;27;19930;-74
2021/11/29 10:12:21;;;;;;;;;;;6.50;93.20;;;;;;4706464;27;19930;-74
2021/11/29 10:14:38;;;;;;;;;;;6.60;93.00;;;;;;4707053;27;20391;-73
2021/11/29 10:16:59;;;;;;;;;;;6.70;93.00;;;;;;4688079;27;19988;-73
2021/11/29 10:19:31;;;;;;;;;;;6.70;93.10;;;;;;4688514;27;19931;-73
2021/11/29 10:21:48;;;;;;;;;;;6.80;93.20;;;;;;4688466;27;19930;-73
2021/11/29 10:24:05;;;;;;;;;;;6.90;92.90;;;;;;4706629;27;20014;-74
2021/11/29 10:26:24;;;;;;;;;;;7.00;93.00;;;;;;4706696;27;19923;-73
2021/11/29 10:28:44;;;;;;;;;;;7.00;92.60;;;;;;4687950;27;19924;-73
2021/11/29 10:31:13;;;;;;;;;;;7.00;92.70;;;;;;4688543;27;20301;-73
2021/11/29 10:33:30;;;;;;;;;;;7.10;92.80;;;;;;4687766;27;19924;-73
2021/11/29 10:35:49;;;;;;;;;;;7.10;92.50;;;;;;4688214;27;19947;-73
2021/11/29 10:38:07;;;;;;;;;;;7.10;92.30;;;;;;4706559;27;19988;-74
2021/11/29 10:40:23;;;;;;;;;;;7.20;92.30;;;;;;4706414;27;20288;-73
2021/11/29 10:42:39;;;;;;;;;;;7.20;92.60;;;;;;4705658;27;19966;-74
2021/11/29 10:44:55;;;;;;;;;;;7.20;92.70;;;;;;4706472;27;19923;-74
2021/11/29 10:47:12;;;;;;;;;;;7.30;92.30;;;;;;4687524;27;20356;-74
2021/11/29 10:49:31;;;;;;;;;;;7.30;92.70;;;;;;4687859;27;19962;-74
2021/11/29 10:51:48;;;;;;;;;;;7.40;92.20;;;;;;4706239;27;19931;-74
2021/11/29 10:54:07;;;;;;;;;;;7.40;92.50;;;;;;4706363;27;20384;-73
2021/11/29 10:56:24;;;;;;;;;;;7.50;92.60;;;;;;4706021;27;19967;-73
2021/11/29 10:58:45;;;;;;;;;;;7.50;92.50;;;;;;4706268;27;19927;-73
2021/11/29 11:01:01;;;;;;;;;;;7.50;92.80;;;;;;4687591;27;20010;-73
2021/11/29 11:03:17;;;;;;;;;;;7.60;92.70;;;;;;4686816;27;19977;-73
2021/11/29 11:05:54;;;;;;;;;;;7.60;92.50;;;;;;4706268;27;20301;-74
2021/11/29 11:08:16;;;;;;;;;;;7.60;90.50;;;;;;4705773;27;19947;-73
2021/11/29 11:10:35;;;;;;;;;;;7.50;90.90;;;;;;4706012;27;19963;-73
2021/11/29 11:12:59;;;;;;;;;;;7.50;90.70;;;;;;4705334;27;19931;-74
2021/11/29 11:15:16;;;;;;;;;;;7.40;91.00;;;;;;4705732;27;19924;-75
2021/11/29 11:17:51;;;;;;;;;;;7.30;91.10;;;;;;4686888;27;19930;-74
2021/11/29 11:20:09;;;;;;;;;;;7.30;91.50;;;;;;4687413;27;19931;-74
2021/11/29 11:22:28;;;;;;;;;;;7.30;91.70;;;;;;4705378;27;19949;-74
2021/11/29 11:24:48;;;;;;;;;;;7.30;90.90;;;;;;4705576;27;19959;-71
2021/11/29 11:27:06;;;;;;;;;;;7.30;91.40;;;;;;4687462;27;19931;-72
2021/11/29 11:29:34;;;;;;;;;;;7.40;91.90;;;;;;4705331;27;19934;-73
2021/11/29 11:31:50;;;;;;;;;;;7.40;92.00;;;;;;4687260;27;19970;-71
2021/11/29 11:34:08;;;;;;;;;;;7.40;91.40;;;;;;4686715;27;19935;-72
2021/11/29 11:36:25;;;;;;;;;;;7.40;91.00;;;;;;4687276;27;19924;-73
2021/11/29 11:38:41;;;;;;;;;;;7.40;90.90;;;;;;4686656;27;19982;-71
2021/11/29 11:41:00;;;;;;;;;;;7.30;91.40;;;;;;4705247;27;19931;-72
2021/11/29 11:43:18;;;;;;;;;;;7.30;91.10;;;;;;4705045;27;20277;-72
2021/11/29 11:45:41;;;;;;;;;;;7.20;91.00;;;;;;4687365;27;19924;-72
2021/11/29 11:47:59;;;;;;;;;;;7.20;91.20;;;;;;4705084;27;19953;-72
2021/11/29 11:50:16;;;;;;;;;;;7.20;91.50;;;;;;4705002;27;19934;-73
2021/11/29 11:52:32;;;;;;;;;;;7.20;91.20;;;;;;4686454;27;19954;-73
2021/11/29 11:54:49;;;;;;;;;;;7.20;91.60;;;;;;4704835;27;20384;-73
2021/11/29 11:57:27;;;;;;;;;;;7.20;91.20;;;;;;4705145;27;19923;-73
2021/11/29 11:59:50;;;;;;;;;;;7.20;91.40;;;;;;4704871;27;20408;-73
2021/11/29 12:02:07;;;;;;;;;;;7.20;91.70;;;;;;4705408;27;20403;-73
2021/11/29 12:04:25;;;;;;;;;;;7.20;91.30;;;;;;4704594;27;19928;-73
2021/11/29 12:06:45;;;;;;;;;;;7.20;91.30;;;;;;4704979;27;19969;-73
2021/11/29 12:09:01;;;;;;;;;;;7.20;92.00;;;;;;4704931;27;19923;-73
2021/11/29 12:11:36;;;;;;;;;;;7.20;90.30;;;;;;4704777;27;20030;-73
2021/11/29 12:14:01;;;;;;;;;;;7.10;90.50;;;;;;4704222;27;19969;-73
2021/11/29 12:16:30;;;;;;;;;;;7.00;90.40;;;;;;4704724;27;20296;-72
2021/11/29 12:18:50;;;;;;;;;;;7.00;90.20;;;;;;4704550;27;20400;-73
2021/11/29 12:21:14;;;;;;;;;;;7.00;91.20;;;;;;4686529;28;19924;-73
2021/11/29 12:23:43;;;;;;;;;;;7.00;90.10;;;;;;4704538;27;20006;-73
2021/11/29 12:26:02;;;;;;;;;;;7.00;91.30;;;;;;4703724;27;20343;-73
2021/11/29 12:28:34;;;;;;;;;;;7.10;91.90;;;;;;4704367;27;19924;-73
2021/11/29 12:30:50;;;;;;;;;;;7.10;91.50;;;;;;4685843;27;20303;-73
2021/11/29 12:33:10;;;;;;;;;;;7.00;90.20;;;;;;4704702;27;19923;-73
2021/11/29 12:35:31;;;;;;;;;;;7.00;90.50;;;;;;4685758;27;19934;-74
2021/11/29 12:38:06;;;;;;;;;;;6.90;90.30;;;;;;4685946;27;19927;-73
2021/11/29 12:40:23;;;;;;;;;;;6.90;90.80;;;;;;4704451;27;19931;-73
2021/11/29 12:42:53;;;;;;;;;;;6.90;90.60;;;;;;4704465;27;19953;-74
2021/11/29 12:45:13;;;;;;;;;;;6.90;90.50;;;;;;4704514;27;19924;-74
2021/11/29 12:47:39;;;;;;;;;;;6.90;89.80;;;;;;4703453;27;20999;-73
2021/11/29 12:49:59;;;;;;;;;;;6.90;90.90;;;;;;4685879;27;19970;-74
2021/11/29 12:52:35;;;;;;;;;;;6.90;91.40;;;;;;4704024;27;20369;-74
2021/11/29 12:54:54;;;;;;;;;;;6.90;90.80;;;;;;4686119;27;19969;-73
2021/11/29 12:57:25;;;;;;;;;;;6.90;91.50;;;;;;4704157;27;19955;-74
2021/11/29 12:59:49;;;;;;;;;;;6.90;91.30;;;;;;4683173;27;19927;-74
2021/11/29 13:02:05;;;;;;;;;;;7.00;91.40;;;;;;4685370;28;19928;-74
2021/11/29 13:04:23;;;;;;;;;;;7.00;90.90;;;;;;4685314;28;19974;-75
2021/11/29 13:06:52;;;;;;;;;;;7.00;91.30;;;;;;4704039;28;20014;-73
2021/11/29 13:09:14;;;;;;;;;;;7.00;91.40;;;;;;4703920;28;19970;-74
2021/11/29 13:11:33;;;;;;;;;;;7.00;90.90;;;;;;4685679;28;20030;-74
2021/11/29 13:13:51;;;;;;;;;;;6.90;91.30;;;;;;4703599;28;19923;-74
2021/11/29 13:16:08;;;;;;;;;;;6.90;91.20;;;;;;4685816;28;19934;-74
2021/11/29 13:18:44;;;;;;;;;;;6.90;90.80;;;;;;4703527;28;20035;-74
2021/11/29 13:21:01;;;;;;;;;;;6.80;90.50;;;;;;4704524;28;19927;-74
2021/11/29 13:23:21;;;;;;;;;;;6.80;91.20;;;;;;4685016;28;19955;-74
2021/11/29 13:25:37;;;;;;;;;;;6.70;91.10;;;;;;4685867;28;20389;-74
2021/11/29 13:27:55;;;;;;;;;;;6.70;90.90;;;;;;4703474;28;20454;-74
2021/11/29 13:30:12;;;;;;;;;;;6.70;91.20;;;;;;4685241;28;19955;-75
2021/11/29 13:32:30;;;;;;;;;;;6.60;90.40;;;;;;4703736;28;20403;-74
2021/11/29 13:34:48;;;;;;;;;;;6.60;90.60;;;;;;4703361;28;20367;-72
2021/11/29 13:37:08;;;;;;;;;;;6.50;90.40;;;;;;4703639;28;19934;-73